Time;durP1;ratioP1;P1;durP2;ratioP2;P2;SDS_P1;SDS_P2;PMS_P1;PMS_P2;Temp;Humidity;BMP_temperature;BMP_pressure;BME280_temperature;BME280_humidity;BME280_pressure;Samples;Min_cycle;Max_cycle;Signal;HPM_P1;HPM_P2
2021/06/26 00:00:51;;;;;;;13.05;10.95;;;15.30;99.90;;;;;;5045144;28;20032;-74
2021/06/26 00:03:22;;;;;;;11.68;10.48;;;15.30;99.90;;;;;;5058037;28;20021;-73
2021/06/26 00:05:47;;;;;;;12.63;10.20;;;15.30;99.90;;;;;;5056150;28;20021;-73
2021/06/26 00:08:13;;;;;;;12.80;10.20;;;15.30;99.90;;;;;;5051872;28;20028;-73
2021/06/26 00:10:40;;;;;;;14.50;11.30;;;15.50;99.90;;;;;;5059957;28;20021;-74
2021/06/26 00:13:06;;;;;;;16.40;13.75;;;15.50;99.90;;;;;;5063003;28;20031;-73
2021/06/26 00:15:31;;;;;;;21.67;15.93;;;15.60;99.90;;;;;;5056818;28;20402;-75
2021/06/26 00:17:57;;;;;;;21.92;15.63;;;15.60;99.90;;;;;;5051751;28;20032;-73
2021/06/26 00:20:22;;;;;;;20.92;15.52;;;15.50;99.90;;;;;;5054166;28;20025;-74
2021/06/26 00:22:48;;;;;;;22.08;15.93;;;15.50;99.90;;;;;;5062776;28;20376;-74
2021/06/26 00:25:14;;;;;;;22.58;16.98;;;15.60;99.90;;;;;;5060236;28;20029;-74
2021/06/26 00:27:39;;;;;;;25.30;17.63;;;15.60;99.90;;;;;;5049249;28;20438;-74
2021/06/26 00:30:06;;;;;;;37.97;22.08;;;15.50;99.90;;;;;;5047410;28;20057;-73
2021/06/26 00:32:32;;;;;;;30.88;19.98;;;15.20;99.90;;;;;;5062105;28;20044;-73
2021/06/26 00:34:57;;;;;;;29.48;20.85;;;15.30;99.90;;;;;;5053598;28;20500;-74
2021/06/26 00:37:23;;;;;;;22.58;18.02;;;15.20;99.90;;;;;;5064190;28;20025;-73
2021/06/26 00:39:49;;;;;;;22.38;16.30;;;15.10;99.90;;;;;;5057135;28;20026;-73
2021/06/26 00:42:14;;;;;;;23.33;17.98;;;15.20;99.90;;;;;;5062600;28;20029;-73
2021/06/26 00:44:40;;;;;;;24.00;18.13;;;15.30;99.90;;;;;;5059779;28;20053;-73
2021/06/26 00:47:11;;;;;;;36.88;21.48;;;15.20;99.90;;;;;;5053881;28;20040;-73
2021/06/26 00:49:40;;;;;;;27.30;19.58;;;15.30;99.90;;;;;;5059659;28;20395;-73
2021/06/26 00:52:07;;;;;;;34.63;21.90;;;15.30;99.90;;;;;;5066111;28;20046;-73
2021/06/26 00:54:34;;;;;;;50.30;19.80;;;15.10;99.90;;;;;;5063888;28;20025;-73
2021/06/26 00:57:00;;;;;;;22.10;16.98;;;15.00;99.90;;;;;;5055623;28;20545;-73
2021/06/26 00:59:27;;;;;;;21.27;16.60;;;14.90;99.90;;;;;;5062512;28;20036;-73
2021/06/26 01:01:52;;;;;;;18.98;15.05;;;15.00;99.90;;;;;;5054855;28;20590;-73
2021/06/26 01:04:18;;;;;;;31.92;20.23;;;14.90;99.90;;;;;;5047468;28;20037;-73
2021/06/26 01:06:44;;;;;;;21.80;16.52;;;14.90;99.90;;;;;;5066623;28;20478;-73
2021/06/26 01:09:09;;;;;;;32.88;20.10;;;14.80;99.90;;;;;;5056758;28;20035;-73
2021/06/26 01:11:35;;;;;;;23.15;16.60;;;14.80;99.90;;;;;;5064079;28;20024;-73
2021/06/26 01:14:02;;;;;;;27.90;18.33;;;14.80;99.90;;;;;;5062742;28;20068;-73
2021/06/26 01:16:27;;;;;;;66.97;21.30;;;14.80;99.90;;;;;;5064071;28;20074;-73
2021/06/26 01:18:53;;;;;;;56.50;19.85;;;14.80;99.90;;;;;;5058611;28;20025;-73
2021/06/26 01:21:18;;;;;;;27.75;17.27;;;14.90;99.90;;;;;;5054531;28;20052;-74
2021/06/26 01:23:46;;;;;;;28.25;17.33;;;15.00;99.90;;;;;;5040818;28;20552;-74
2021/06/26 01:26:13;;;;;;;25.40;17.33;;;14.90;99.90;;;;;;5052749;28;20021;-74
2021/06/26 01:28:39;;;;;;;29.20;18.95;;;15.00;99.90;;;;;;5039473;28;20120;-75
2021/06/26 01:31:05;;;;;;;26.13;18.95;;;14.90;99.90;;;;;;5041450;28;20113;-74
2021/06/26 01:33:31;;;;;;;31.20;20.17;;;14.80;99.90;;;;;;5047064;28;20060;-74
2021/06/26 01:35:56;;;;;;;26.30;18.10;;;14.90;99.90;;;;;;5045318;28;20056;-73
2021/06/26 01:38:22;;;;;;;25.83;16.95;;;14.90;99.90;;;;;;5036254;28;20071;-73
2021/06/26 01:40:48;;;;;;;45.90;21.27;;;14.80;99.90;;;;;;5044899;28;20437;-74
2021/06/26 01:43:13;;;;;;;75.63;17.10;;;14.70;99.90;;;;;;5053726;28;20035;-74
2021/06/26 01:45:39;;;;;;;90.05;22.20;;;14.60;99.90;;;;;;5042388;28;20022;-74
2021/06/26 01:48:05;;;;;;;20.77;15.80;;;14.50;99.90;;;;;;5051624;28;20031;-74
2021/06/26 01:50:31;;;;;;;20.45;14.80;;;14.50;99.90;;;;;;5040987;28;20392;-74
2021/06/26 01:52:57;;;;;;;18.98;14.77;;;14.50;99.90;;;;;;5047089;28;20030;-74
2021/06/26 01:55:24;;;;;;;135.93;18.98;;;14.50;99.90;;;;;;5043531;28;20127;-74
2021/06/26 01:57:51;;;;;;;64.20;14.27;;;14.60;99.90;;;;;;5039707;28;20025;-75
2021/06/26 02:00:18;;;;;;;322.52;28.25;;;14.60;99.90;;;;;;5041874;28;20017;-76
2021/06/26 02:02:44;;;;;;;25.60;15.15;;;14.50;99.90;;;;;;5045506;28;20057;-74
2021/06/26 02:05:12;;;;;;;24.42;16.10;;;14.50;99.90;;;;;;5044969;28;20072;-74
2021/06/26 02:07:37;;;;;;;52.55;18.55;;;14.60;99.90;;;;;;5039962;28;20025;-75
2021/06/26 02:10:05;;;;;;;23.77;16.77;;;14.70;99.90;;;;;;5040094;28;20025;-75
2021/06/26 02:12:30;;;;;;;28.33;16.20;;;14.60;99.90;;;;;;5046850;28;20048;-75
2021/06/26 02:14:56;;;;;;;19.60;15.93;;;14.50;99.90;;;;;;5044711;28;20090;-74
2021/06/26 02:17:22;;;;;;;20.77;15.13;;;14.50;99.90;;;;;;5039615;28;20029;-74
2021/06/26 02:19:48;;;;;;;49.65;20.83;;;14.40;99.90;;;;;;5039695;28;20033;-74
2021/06/26 02:22:14;;;;;;;35.67;19.13;;;14.30;99.90;;;;;;5046601;28;20108;-74
2021/06/26 02:24:40;;;;;;;17.65;13.35;;;14.20;99.90;;;;;;5045303;28;20029;-76
2021/06/26 02:27:05;;;;;;;18.25;12.32;;;14.20;99.90;;;;;;5040085;28;20074;-77
2021/06/26 02:29:31;;;;;;;16.70;12.43;;;14.10;99.90;;;;;;5041022;28;20095;-75
2021/06/26 02:31:57;;;;;;;16.80;12.52;;;14.20;99.90;;;;;;5046681;28;20033;-74
2021/06/26 02:34:22;;;;;;;16.92;13.10;;;14.20;99.90;;;;;;5044707;28;20437;-76
2021/06/26 02:36:48;;;;;;;12.52;11.23;;;14.20;99.90;;;;;;5039413;28;20035;-75
2021/06/26 02:39:14;;;;;;;17.65;13.98;;;14.30;99.90;;;;;;5039482;28;20120;-75
2021/06/26 02:41:39;;;;;;;16.38;13.70;;;14.30;99.90;;;;;;5046048;28;20082;-75
2021/06/26 02:44:05;;;;;;;21.15;14.05;;;14.40;99.90;;;;;;5044550;28;20475;-75
2021/06/26 02:46:31;;;;;;;21.20;15.10;;;14.50;99.90;;;;;;5046330;28;20236;-76
2021/06/26 02:48:57;;;;;;;16.67;13.05;;;14.60;99.90;;;;;;5042711;28;20458;-76
2021/06/26 02:51:22;;;;;;;16.35;13.48;;;14.50;99.90;;;;;;5039237;28;20075;-75
2021/06/26 02:53:48;;;;;;;39.45;13.70;;;14.50;99.90;;;;;;5041026;28;20451;-76
2021/06/26 02:56:14;;;;;;;18.30;13.00;;;14.60;99.90;;;;;;5049311;28;20402;-75
2021/06/26 02:58:39;;;;;;;19.10;13.82;;;14.50;99.90;;;;;;5041098;28;20083;-75
2021/06/26 03:01:05;;;;;;;16.00;13.50;;;14.50;99.90;;;;;;5045514;28;20048;-75
2021/06/26 03:03:30;;;;;;;15.95;11.63;;;14.40;99.90;;;;;;5032833;28;20032;-75
2021/06/26 03:05:56;;;;;;;17.38;13.65;;;14.60;99.90;;;;;;5047994;28;20099;-75
2021/06/26 03:08:21;;;;;;;15.52;11.93;;;14.50;99.90;;;;;;5044403;28;20039;-75
2021/06/26 03:10:47;;;;;;;16.30;14.25;;;14.40;99.90;;;;;;5037227;28;20028;-74
2021/06/26 03:13:13;;;;;;;17.02;14.35;;;14.40;99.90;;;;;;5052229;28;20437;-75
2021/06/26 03:15:38;;;;;;;21.30;14.48;;;14.50;99.90;;;;;;5038519;28;20029;-73
2021/06/26 03:18:04;;;;;;;22.15;14.80;;;14.70;99.90;;;;;;5041267;28;20029;-75
2021/06/26 03:20:30;;;;;;;21.27;14.05;;;14.80;99.90;;;;;;5043928;28;20065;-74
2021/06/26 03:22:55;;;;;;;23.02;15.15;;;14.80;99.90;;;;;;5042584;28;20025;-74
2021/06/26 03:25:21;;;;;;;21.70;13.43;;;14.70;99.90;;;;;;5038468;28;20029;-74
2021/06/26 03:27:46;;;;;;;23.55;13.80;;;14.70;99.90;;;;;;5041512;28;20095;-73
2021/06/26 03:30:12;;;;;;;22.33;14.10;;;14.80;99.90;;;;;;5045060;28;20533;-73
2021/06/26 03:32:38;;;;;;;23.25;14.48;;;14.90;99.90;;;;;;5041042;28;20029;-74
2021/06/26 03:35:04;;;;;;;23.80;13.73;;;14.80;99.90;;;;;;5038446;28;20083;-75
2021/06/26 03:37:30;;;;;;;18.85;13.13;;;14.80;99.90;;;;;;5040167;28;20033;-74
2021/06/26 03:39:55;;;;;;;21.23;14.77;;;15.00;99.90;;;;;;5048531;28;20395;-75
2021/06/26 03:42:21;;;;;;;24.23;15.77;;;15.00;99.90;;;;;;5041498;28;20022;-73
2021/06/26 03:44:47;;;;;;;21.98;15.27;;;15.00;99.90;;;;;;5035776;28;20467;-74
2021/06/26 03:47:12;;;;;;;17.98;14.40;;;14.70;99.90;;;;;;5040938;28;20025;-74
2021/06/26 03:49:39;;;;;;;21.85;13.80;;;14.60;99.90;;;;;;5044902;28;20022;-75
2021/06/26 03:52:06;;;;;;;19.05;13.68;;;14.60;99.90;;;;;;5042968;28;20047;-73
2021/06/26 03:54:32;;;;;;;20.30;13.15;;;14.70;99.90;;;;;;5047587;28;20105;-73
2021/06/26 03:56:58;;;;;;;17.67;13.52;;;14.70;99.90;;;;;;5042657;28;20044;-73
2021/06/26 03:59:24;;;;;;;23.92;14.57;;;14.50;99.90;;;;;;5033601;28;20411;-72
2021/06/26 04:01:50;;;;;;;20.48;13.88;;;14.50;99.90;;;;;;5042544;28;20036;-73
2021/06/26 04:04:16;;;;;;;16.88;13.07;;;14.70;99.90;;;;;;5047083;28;20440;-74
2021/06/26 04:06:41;;;;;;;20.52;14.18;;;14.90;99.90;;;;;;5041174;28;20060;-73
2021/06/26 04:09:07;;;;;;;20.88;15.18;;;15.10;99.90;;;;;;5051258;28;20027;-73
2021/06/26 04:11:32;;;;;;;19.90;15.98;;;14.90;99.90;;;;;;5051494;28;20055;-73
2021/06/26 04:13:58;;;;;;;20.83;16.17;;;14.90;99.90;;;;;;5038000;28;20044;-73
2021/06/26 04:16:23;;;;;;;25.17;16.58;;;15.00;99.90;;;;;;5039588;28;20053;-73
2021/06/26 04:18:49;;;;;;;22.95;16.75;;;15.00;99.90;;;;;;5044715;28;20029;-73
2021/06/26 04:21:14;;;;;;;27.02;18.25;;;15.10;99.90;;;;;;5041482;28;20039;-73
2021/06/26 04:23:40;;;;;;;29.27;18.63;;;14.90;99.90;;;;;;5041957;28;20399;-73
2021/06/26 04:26:06;;;;;;;30.73;18.48;;;15.00;99.90;;;;;;5055351;28;20025;-73
2021/06/26 04:28:31;;;;;;;30.77;18.58;;;15.00;99.90;;;;;;5051045;28;20105;-73
2021/06/26 04:30:57;;;;;;;31.05;19.90;;;14.90;99.90;;;;;;5044354;28;20459;-73
2021/06/26 04:33:25;;;;;;;48.88;23.42;;;15.10;99.90;;;;;;5040678;28;20025;-73
2021/06/26 04:35:51;;;;;;;38.72;22.40;;;15.20;99.90;;;;;;5055242;28;20025;-73
2021/06/26 04:38:21;;;;;;;36.85;20.15;;;15.10;99.90;;;;;;5055068;28;20021;-73
2021/06/26 04:40:51;;;;;;;38.55;22.45;;;15.20;99.90;;;;;;5043744;28;20019;-73
2021/06/26 04:43:17;;;;;;;68.40;27.98;;;15.30;99.90;;;;;;5048472;28;20388;-73
2021/06/26 04:45:44;;;;;;;46.22;25.48;;;15.30;99.90;;;;;;5046622;28;20021;-73
2021/06/26 04:48:10;;;;;;;85.82;30.05;;;15.30;99.90;;;;;;5034991;28;20022;-73
2021/06/26 04:50:36;;;;;;;90.72;31.10;;;15.40;99.90;;;;;;5045367;28;20121;-73
2021/06/26 04:53:01;;;;;;;41.40;24.23;;;15.40;99.90;;;;;;5049378;28;20052;-73
2021/06/26 04:55:27;;;;;;;100.25;29.30;;;15.40;99.90;;;;;;5045384;28;20075;-73
2021/06/26 04:57:53;;;;;;;53.05;25.15;;;15.40;99.90;;;;;;5040966;28;20433;-73
2021/06/26 05:00:19;;;;;;;80.50;31.00;;;15.50;99.90;;;;;;5042311;28;20036;-73
2021/06/26 05:02:45;;;;;;;145.02;37.13;;;15.30;99.90;;;;;;5038581;28;20112;-73
2021/06/26 05:05:11;;;;;;;154.13;40.40;;;15.50;99.90;;;;;;5054372;28;20104;-73
2021/06/26 05:07:36;;;;;;;257.60;45.00;;;15.40;99.90;;;;;;5047970;28;20026;-73
2021/06/26 05:10:03;;;;;;;84.85;33.08;;;15.50;99.90;;;;;;5034214;28;20021;-73
2021/06/26 05:12:28;;;;;;;107.25;35.85;;;15.60;99.90;;;;;;5052742;28;20025;-73
2021/06/26 05:14:54;;;;;;;179.68;40.03;;;15.50;99.90;;;;;;5041092;28;20491;-73
2021/06/26 05:17:20;;;;;;;126.43;36.17;;;15.70;99.90;;;;;;5047625;28;20053;-74
2021/06/26 05:19:45;;;;;;;125.68;36.85;;;15.70;99.90;;;;;;5045760;28;20100;-73
2021/06/26 05:22:12;;;;;;;79.40;33.65;;;15.70;99.90;;;;;;5054095;28;20037;-73
2021/06/26 05:24:38;;;;;;;159.55;37.53;;;16.00;99.90;;;;;;5054344;28;20067;-73
2021/06/26 05:27:04;;;;;;;504.52;60.13;;;15.90;99.90;;;;;;5040684;28;20029;-73
2021/06/26 05:29:31;;;;;;;121.85;36.58;;;15.90;99.90;;;;;;5053795;28;20029;-73
2021/06/26 05:31:57;;;;;;;105.20;32.85;;;15.90;99.90;;;;;;5053646;28;20021;-73
2021/06/26 05:34:22;;;;;;;80.65;33.20;;;16.20;99.90;;;;;;5039494;28;20083;-73
2021/06/26 05:36:48;;;;;;;250.20;40.10;;;16.20;99.90;;;;;;5047171;28;20402;-73
2021/06/26 05:39:13;;;;;;;139.77;37.22;;;16.20;99.90;;;;;;5044852;28;20183;-73
2021/06/26 05:41:39;;;;;;;556.75;54.97;;;16.00;99.90;;;;;;5033388;28;20030;-73
2021/06/26 05:44:04;;;;;;;228.82;42.25;;;16.00;99.90;;;;;;5044543;28;20037;-73
2021/06/26 05:46:30;;;;;;;387.15;54.28;;;15.60;99.90;;;;;;5048395;28;20025;-73
2021/06/26 05:48:55;;;;;;;611.42;55.90;;;15.80;99.90;;;;;;5033755;28;20076;-73
2021/06/26 05:51:21;;;;;;;317.33;44.22;;;15.60;99.90;;;;;;5052073;28;20049;-73
2021/06/26 05:53:47;;;;;;;323.92;50.85;;;15.30;99.90;;;;;;5041904;28;20026;-74
2021/06/26 05:56:13;;;;;;;134.90;34.67;;;15.70;99.90;;;;;;5047147;28;20053;-73
2021/06/26 05:58:38;;;;;;;163.52;41.15;;;15.70;99.90;;;;;;5043877;28;20495;-73
2021/06/26 06:01:06;;;;;;;139.43;32.22;;;15.90;99.90;;;;;;5039939;28;20536;-73
2021/06/26 06:03:32;;;;;;;244.73;47.58;;;15.60;99.90;;;;;;5041455;28;20045;-73
2021/06/26 06:05:57;;;;;;;65.75;33.25;;;15.90;99.90;;;;;;5050466;28;20021;-73
2021/06/26 06:08:23;;;;;;;231.95;42.40;;;16.10;99.90;;;;;;5041579;28;20079;-74
2021/06/26 06:10:49;;;;;;;570.58;55.10;;;16.10;99.90;;;;;;5036720;28;20017;-73
2021/06/26 06:13:16;;;;;;;128.50;35.38;;;15.70;99.90;;;;;;5042095;28;20537;-73
2021/06/26 06:15:43;;;;;;;64.70;30.50;;;15.70;99.90;;;;;;5046627;28;20036;-74
2021/06/26 06:18:09;;;;;;;50.78;30.50;;;16.10;99.90;;;;;;5033164;28;20044;-73
2021/06/26 06:20:35;;;;;;;46.25;28.90;;;16.50;99.90;;;;;;5049547;28;20056;-73
2021/06/26 06:23:01;;;;;;;147.40;39.88;;;16.30;99.90;;;;;;5052859;28;20483;-73
2021/06/26 06:25:26;;;;;;;44.35;28.67;;;16.30;99.90;;;;;;5039306;28;20502;-73
2021/06/26 06:27:52;;;;;;;102.43;33.00;;;16.20;99.90;;;;;;5041743;28;20494;-73
2021/06/26 06:30:18;;;;;;;60.97;28.77;;;16.50;99.90;;;;;;5032771;28;20075;-73
2021/06/26 06:32:43;;;;;;;66.22;30.63;;;16.60;99.90;;;;;;5044121;28;20116;-73
2021/06/26 06:35:09;;;;;;;50.35;30.67;;;16.70;99.90;;;;;;5051357;28;20036;-73
2021/06/26 06:37:38;;;;;;;50.38;29.20;;;16.70;99.90;;;;;;5041569;28;20036;-73
2021/06/26 06:40:08;;;;;;;54.85;32.38;;;16.60;99.90;;;;;;5036037;28;20040;-73
2021/06/26 06:42:35;;;;;;;64.35;34.88;;;16.70;99.90;;;;;;5040694;28;20495;-73
2021/06/26 06:45:01;;;;;;;70.85;33.42;;;16.80;99.90;;;;;;5038225;28;20032;-73
2021/06/26 06:47:27;;;;;;;59.42;34.45;;;16.60;99.90;;;;;;5039847;28;20026;-74
2021/06/26 06:49:52;;;;;;;41.97;28.65;;;16.60;99.90;;;;;;5052440;28;20568;-73
2021/06/26 06:52:18;;;;;;;45.85;31.30;;;16.80;99.90;;;;;;5039938;28;20033;-73
2021/06/26 06:54:43;;;;;;;57.38;33.97;;;16.90;99.90;;;;;;5046831;28;20029;-74
2021/06/26 06:57:09;;;;;;;44.65;31.65;;;16.80;99.90;;;;;;5045607;28;20068;-73
2021/06/26 06:59:35;;;;;;;44.20;30.95;;;16.80;99.90;;;;;;5038710;28;20052;-74
2021/06/26 07:02:00;;;;;;;38.75;28.13;;;17.20;99.90;;;;;;5038743;28;20403;-73
2021/06/26 07:04:26;;;;;;;44.75;30.52;;;17.60;99.90;;;;;;5044530;28;20076;-73
2021/06/26 07:06:52;;;;;;;35.20;26.70;;;17.70;99.90;;;;;;5032127;28;20033;-74
2021/06/26 07:09:18;;;;;;;40.10;29.30;;;17.90;99.90;;;;;;5044341;28;20017;-74
2021/06/26 07:11:43;;;;;;;35.90;26.60;;;17.80;99.90;;;;;;5044836;28;20041;-73
2021/06/26 07:14:09;;;;;;;37.33;27.80;;;17.80;99.90;;;;;;5038016;28;20021;-73
2021/06/26 07:16:34;;;;;;;37.00;26.35;;;17.90;99.90;;;;;;5052040;28;20139;-74
2021/06/26 07:19:00;;;;;;;40.97;30.10;;;18.10;99.90;;;;;;5037361;28;20037;-74
2021/06/26 07:21:25;;;;;;;44.15;31.60;;;18.10;99.90;;;;;;5051793;28;20059;-74
2021/06/26 07:23:51;;;;;;;44.92;30.63;;;17.60;99.90;;;;;;5038633;28;20029;-73
2021/06/26 07:26:16;;;;;;;42.58;29.58;;;17.50;99.90;;;;;;5038392;28;20025;-74
2021/06/26 07:28:42;;;;;;;48.15;31.80;;;17.80;99.90;;;;;;5037393;28;20518;-74
2021/06/26 07:31:08;;;;;;;40.72;30.50;;;17.80;99.90;;;;;;5038337;28;20026;-74
2021/06/26 07:33:33;;;;;;;41.67;30.80;;;17.70;99.90;;;;;;5045173;28;20076;-74
2021/06/26 07:35:59;;;;;;;49.45;34.10;;;17.90;99.90;;;;;;5043869;28;20064;-73
2021/06/26 07:38:25;;;;;;;41.35;31.50;;;18.00;99.90;;;;;;5050477;28;20027;-74
2021/06/26 07:40:50;;;;;;;38.22;29.38;;;17.90;99.90;;;;;;5050215;28;20083;-74
2021/06/26 07:43:16;;;;;;;38.15;29.00;;;18.10;99.90;;;;;;5031540;28;20469;-74
2021/06/26 07:45:41;;;;;;;47.40;30.95;;;18.20;99.90;;;;;;5043163;28;20025;-74
2021/06/26 07:48:07;;;;;;;46.53;31.35;;;18.10;99.90;;;;;;5045856;28;20083;-74
2021/06/26 07:50:33;;;;;;;49.25;33.85;;;17.80;99.90;;;;;;5043054;28;20108;-73
2021/06/26 07:52:59;;;;;;;49.75;33.35;;;17.80;99.90;;;;;;5032830;28;20029;-73
2021/06/26 07:55:24;;;;;;;56.10;35.50;;;17.50;99.90;;;;;;5041817;28;20029;-73
2021/06/26 07:57:50;;;;;;;47.65;34.10;;;17.60;99.90;;;;;;5040274;28;20033;-74
2021/06/26 08:00:21;;;;;;;49.20;33.17;;;17.50;99.90;;;;;;5044096;28;20036;-73
2021/06/26 08:02:46;;;;;;;47.88;31.98;;;17.60;99.90;;;;;;5034432;28;20026;-74
2021/06/26 08:05:12;;;;;;;46.35;32.80;;;17.70;99.90;;;;;;5045928;28;20164;-73
2021/06/26 08:07:38;;;;;;;39.65;30.70;;;17.80;99.90;;;;;;5050297;28;20112;-73
2021/06/26 08:10:04;;;;;;;40.67;30.67;;;18.20;99.90;;;;;;5047245;28;20024;-74
2021/06/26 08:12:32;;;;;;;40.67;29.35;;;18.20;99.90;;;;;;5035573;28;20056;-74
2021/06/26 08:14:57;;;;;;;38.40;28.48;;;18.10;99.90;;;;;;5046555;28;20547;-74
2021/06/26 08:17:23;;;;;;;38.20;28.80;;;18.30;99.90;;;;;;5034953;28;20029;-74
2021/06/26 08:19:48;;;;;;;35.20;27.20;;;19.00;99.90;;;;;;5047511;28;20029;-74
2021/06/26 08:22:14;;;;;;;30.05;25.60;;;19.20;99.90;;;;;;5041803;28;20032;-74
2021/06/26 08:24:39;;;;;;;31.85;25.88;;;19.40;99.90;;;;;;5043114;28;20484;-74
2021/06/26 08:27:05;;;;;;;30.38;25.27;;;19.70;99.90;;;;;;5048416;28;20030;-74
2021/06/26 08:29:31;;;;;;;34.10;26.63;;;19.90;99.90;;;;;;5047286;28;20446;-74
2021/06/26 08:31:56;;;;;;;27.95;23.50;;;19.70;99.90;;;;;;5048465;28;20088;-74
2021/06/26 08:34:22;;;;;;;29.50;25.25;;;19.60;99.90;;;;;;5047015;28;20556;-74
2021/06/26 08:36:50;;;;;;;29.20;24.98;;;20.10;99.90;;;;;;5041460;28;20087;-74
2021/06/26 08:39:19;;;;;;;29.60;23.20;;;20.10;99.90;;;;;;5043039;28;20499;-74
2021/06/26 08:41:46;;;;;;;31.60;25.50;;;20.00;99.90;;;;;;5048285;28;20044;-74
2021/06/26 08:44:12;;;;;;;32.90;25.42;;;19.80;99.90;;;;;;5046418;28;20021;-74
2021/06/26 08:46:44;;;;;;;29.15;23.83;;;19.50;99.90;;;;;;5054755;28;20059;-74
2021/06/26 08:49:10;;;;;;;27.65;23.88;;;19.50;99.90;;;;;;5041737;28;20017;-73
2021/06/26 08:51:36;;;;;;;28.48;24.20;;;19.60;99.90;;;;;;5057576;28;20028;-73
2021/06/26 08:54:02;;;;;;;30.58;23.95;;;19.50;99.90;;;;;;5041378;28;20056;-74
2021/06/26 08:56:28;;;;;;;27.63;22.80;;;19.30;99.90;;;;;;5034587;28;20025;-74
2021/06/26 08:58:53;;;;;;;31.98;25.10;;;19.50;99.90;;;;;;5046627;28;20032;-74
2021/06/26 09:01:19;;;;;;;29.42;24.42;;;19.80;99.90;;;;;;5034593;28;20033;-74
2021/06/26 09:03:44;;;;;;;31.35;25.40;;;20.00;99.90;;;;;;5047613;28;20130;-74
2021/06/26 09:06:10;;;;;;;29.70;23.35;;;20.30;99.90;;;;;;5034728;28;20025;-74
2021/06/26 09:08:46;;;;;;;30.42;24.20;;;20.20;99.90;;;;;;5034200;28;20021;-73
2021/06/26 09:11:17;;;;;;;32.22;26.20;;;20.00;99.90;;;;;;5034321;28;20107;-74
2021/06/26 09:13:43;;;;;;;28.02;22.80;;;19.90;99.90;;;;;;5047964;28;20453;-74
2021/06/26 09:16:11;;;;;;;28.95;22.85;;;19.90;99.90;;;;;;5044870;28;20036;-74
2021/06/26 09:18:45;;;;;;;26.88;22.90;;;20.00;99.90;;;;;;5047952;28;20017;-74
2021/06/26 09:21:18;;;;;;;23.85;20.08;;;20.20;99.90;;;;;;5032837;28;20446;-74
2021/06/26 09:23:43;;;;;;;23.15;19.70;;;20.40;99.90;;;;;;5047799;28;20044;-74
2021/06/26 09:26:11;;;;;;;24.45;21.25;;;20.60;99.90;;;;;;5034304;28;20097;-73
2021/06/26 09:28:38;;;;;;;24.90;21.00;;;20.50;99.90;;;;;;5046236;28;20024;-73
2021/06/26 09:31:04;;;;;;;23.88;20.42;;;20.60;99.90;;;;;;5044340;28;20029;-74
2021/06/26 09:33:30;;;;;;;20.77;18.55;;;20.60;99.90;;;;;;5040551;28;20394;-73
2021/06/26 09:35:59;;;;;;;20.67;17.92;;;20.80;99.90;;;;;;5042132;28;20025;-74
2021/06/26 09:38:24;;;;;;;19.70;17.08;;;20.90;99.90;;;;;;5047204;28;20541;-74
2021/06/26 09:40:50;;;;;;;23.73;20.08;;;21.00;99.90;;;;;;5044673;28;20037;-74
2021/06/26 09:43:26;;;;;;;23.85;20.00;;;20.90;99.90;;;;;;5044799;28;20052;-75
2021/06/26 09:46:04;;;;;;;19.75;17.65;;;20.80;99.90;;;;;;5047669;28;20060;-74
2021/06/26 09:48:29;;;;;;;21.08;18.83;;;21.00;99.90;;;;;;5041626;28;20032;-74
2021/06/26 09:50:55;;;;;;;17.48;15.52;;;21.00;99.90;;;;;;5038576;28;20431;-74
2021/06/26 09:53:20;;;;;;;19.13;16.02;;;21.30;99.90;;;;;;5040188;28;20391;-74
2021/06/26 09:55:53;;;;;;;18.38;16.33;;;21.30;99.90;;;;;;5040133;28;20391;-74
2021/06/26 09:58:18;;;;;;;16.52;14.85;;;21.40;99.90;;;;;;5053697;28;20356;-74
2021/06/26 10:00:45;;;;;;;17.00;14.32;;;21.40;99.90;;;;;;5040014;28;20060;-74
2021/06/26 10:03:15;;;;;;;16.60;14.18;;;21.30;99.90;;;;;;5044726;28;20084;-74
2021/06/26 10:05:43;;;;;;;16.77;14.07;;;21.70;99.90;;;;;;5046930;28;20017;-74
2021/06/26 10:08:09;;;;;;;17.55;15.52;;;22.10;99.90;;;;;;5043323;28;20021;-74
2021/06/26 10:10:35;;;;;;;15.85;14.13;;;21.90;99.90;;;;;;5039910;28;20426;-74
2021/06/26 10:13:01;;;;;;;16.65;14.38;;;22.00;99.90;;;;;;5053947;28;20025;-74
2021/06/26 10:15:30;;;;;;;15.40;13.07;;;21.90;99.90;;;;;;5040284;28;20033;-74
2021/06/26 10:17:57;;;;;;;14.15;12.20;;;22.00;99.90;;;;;;5043357;28;20029;-75
2021/06/26 10:20:25;;;;;;;12.23;11.02;;;22.10;99.90;;;;;;5045963;28;20148;-74
2021/06/26 10:22:57;;;;;;;13.68;12.23;;;22.30;99.90;;;;;;5043823;28;20025;-74
2021/06/26 10:25:39;;;;;;;14.18;12.30;;;22.50;99.90;;;;;;5038491;28;20049;-74
2021/06/26 10:28:14;;;;;;;13.48;12.07;;;22.60;99.90;;;;;;5039872;28;20071;-74
2021/06/26 10:30:41;;;;;;;14.95;12.52;;;22.40;99.90;;;;;;5039861;28;20032;-74
2021/06/26 10:33:09;;;;;;;11.85;10.50;;;22.40;99.90;;;;;;5039511;28;20029;-74
2021/06/26 10:35:37;;;;;;;12.40;11.02;;;22.80;99.90;;;;;;5043708;28;20025;-73
2021/06/26 10:38:10;;;;;;;12.48;11.10;;;23.20;99.90;;;;;;5046383;28;20086;-74
2021/06/26 10:40:45;;;;;;;11.38;9.52;;;23.40;99.90;;;;;;5032929;28;20030;-74
2021/06/26 10:43:17;;;;;;;11.25;9.95;;;23.30;99.90;;;;;;5050486;28;20386;-74
2021/06/26 10:45:43;;;;;;;13.27;10.00;;;23.00;99.90;;;;;;5039986;28;20025;-74
2021/06/26 10:48:26;;;;;;;11.93;9.60;;;23.30;99.90;;;;;;5033140;28;20022;-74
2021/06/26 10:50:55;;;;;;;10.93;9.77;;;23.30;99.90;;;;;;5044550;28;20450;-74
2021/06/26 10:53:38;;;;;;;11.40;10.20;;;23.20;99.90;;;;;;5039099;28;20418;-74
2021/06/26 10:56:11;;;;;;;11.18;10.07;;;22.40;99.90;;;;;;5052554;28;20574;-74
2021/06/26 10:58:42;;;;;;;11.35;10.25;;;22.60;99.90;;;;;;5041745;28;20111;-74
2021/06/26 11:01:25;;;;;;;11.80;9.90;;;23.10;99.90;;;;;;5045704;28;20022;-74
2021/06/26 11:04:06;;;;;;;9.93;8.90;;;22.70;99.90;;;;;;5033080;28;20033;-75
2021/06/26 11:06:32;;;;;;;10.10;8.90;;;23.10;99.90;;;;;;5041268;28;20032;-74
2021/06/26 11:09:01;;;;;;;11.43;9.07;;;23.30;99.90;;;;;;5032543;28;20041;-74
2021/06/26 11:11:35;;;;;;;9.95;8.95;;;23.70;99.90;;;;;;5042522;28;20013;-74
2021/06/26 11:14:12;;;;;;;9.82;8.65;;;23.70;99.90;;;;;;5034578;28;20133;-74
2021/06/26 11:16:39;;;;;;;11.65;9.25;;;23.70;99.90;;;;;;5044696;28;20025;-74
2021/06/26 11:19:05;;;;;;;10.02;9.05;;;23.80;99.90;;;;;;5044785;28;20029;-74
2021/06/26 11:21:42;;;;;;;14.27;9.30;;;24.00;99.90;;;;;;5043527;28;20041;-73
2021/06/26 11:24:08;;;;;;;9.70;8.70;;;23.70;99.90;;;;;;5051173;28;20025;-74
2021/06/26 11:26:52;;;;;;;9.85;8.85;;;23.50;99.90;;;;;;5037326;28;20021;-74
2021/06/26 11:29:27;;;;;;;10.27;8.32;;;24.00;99.90;;;;;;5050741;28;20032;-75
2021/06/26 11:31:53;;;;;;;9.45;8.55;;;24.30;99.90;;;;;;5034293;28;20032;-74
2021/06/26 11:34:19;;;;;;;9.60;8.57;;;24.20;99.90;;;;;;5043323;28;20025;-74
2021/06/26 11:36:57;;;;;;;9.23;8.27;;;24.70;99.90;;;;;;5047315;28;20029;-74
2021/06/26 11:39:23;;;;;;;9.23;8.38;;;24.60;99.90;;;;;;5032015;28;20026;-74
2021/06/26 11:41:49;;;;;;;8.15;7.45;;;25.00;99.90;;;;;;5037660;28;20033;-74
2021/06/26 11:44:14;;;;;;;9.30;8.32;;;25.20;99.90;;;;;;5063978;28;20044;-74
2021/06/26 11:46:40;;;;;;;8.63;7.82;;;25.10;99.90;;;;;;5051203;28;20541;-75
2021/06/26 11:49:05;;;;;;;8.77;7.97;;;25.30;99.90;;;;;;5039088;28;20026;-74
2021/06/26 11:51:31;;;;;;;9.20;8.25;;;25.20;99.90;;;;;;5037792;28;20025;-74
2021/06/26 11:53:56;;;;;;;8.50;7.80;;;25.20;99.90;;;;;;5050625;28;20025;-74
2021/06/26 11:56:22;;;;;;;7.70;7.00;;;25.40;99.90;;;;;;5038421;28;20025;-74
2021/06/26 11:58:51;;;;;;;7.85;7.10;;;26.00;99.90;;;;;;5037586;28;20518;-74
2021/06/26 12:01:25;;;;;;;8.13;7.40;;;26.30;99.90;;;;;;5038647;28;20033;-75
2021/06/26 12:03:51;;;;;;;8.20;7.47;;;26.00;99.90;;;;;;5038232;28;20112;-74
2021/06/26 12:06:17;;;;;;;7.57;6.65;;;25.40;99.90;;;;;;5043583;28;20044;-74
2021/06/26 12:08:54;;;;;;;7.40;6.72;;;24.80;99.90;;;;;;5045807;28;20025;-74
2021/06/26 12:11:23;;;;;;;7.32;6.65;;;24.70;99.90;;;;;;5031738;28;20018;-74
2021/06/26 12:13:54;;;;;;;9.30;7.13;;;24.50;99.90;;;;;;5043905;28;20022;-74
2021/06/26 12:16:27;;;;;;;7.40;6.72;;;24.70;99.90;;;;;;5030395;28;20083;-74
2021/06/26 12:18:58;;;;;;;7.78;7.00;;;24.80;99.90;;;;;;5048540;28;20021;-75
2021/06/26 12:21:27;;;;;;;9.55;7.72;;;24.70;99.90;;;;;;5038164;28;20507;-74
2021/06/26 12:23:54;;;;;;;9.20;8.32;;;24.60;99.90;;;;;;5050559;28;20051;-74
2021/06/26 12:26:22;;;;;;;9.02;8.10;;;24.30;99.90;;;;;;5039329;28;20049;-74